Time;durP1;ratioP1;P1;durP2;ratioP2;P2;SDS_P1;SDS_P2;PMS_P1;PMS_P2;Temp;Humidity;BMP_temperature;BMP_pressure;BME280_temperature;BME280_humidity;BME280_pressure;Samples;Min_cycle;Max_cycle;Signal;HPM_P1;HPM_P2
2022/01/24 00:00:27;;;;;;;4.05;2.65;;;4.90;88.80;;;;;;5020780;28;20059;-82
2022/01/24 00:02:53;;;;;;;4.50;2.10;;;4.90;88.80;;;;;;5001002;28;20317;-82
2022/01/24 00:05:19;;;;;;;4.28;2.63;;;4.90;88.90;;;;;;4995179;28;20038;-82
2022/01/24 00:07:45;;;;;;;5.68;2.50;;;4.90;88.90;;;;;;5006821;28;20037;-82
2022/01/24 00:10:16;;;;;;;3.88;2.60;;;4.90;88.90;;;;;;5023500;28;20029;-82
2022/01/24 00:18:08;;;;;;;3.95;1.90;;;4.90;88.90;;;;;;5028675;28;20060;-82
2022/01/24 00:28:46;;;;;;;2.83;1.90;;;4.90;89.00;;;;;;5036548;28;20516;-82
2022/01/24 00:31:11;;;;;;;3.10;1.80;;;4.90;89.10;;;;;;5025294;28;25595;-81
2022/01/24 00:33:37;;;;;;;2.78;1.90;;;4.90;89.10;;;;;;5017343;28;20127;-86
2022/01/24 00:36:03;;;;;;;1.58;1.27;;;4.80;89.10;;;;;;5000005;28;20128;-83
2022/01/24 00:38:28;;;;;;;4.10;1.75;;;4.90;89.20;;;;;;5015319;28;20116;-83
2022/01/24 00:40:54;;;;;;;3.13;2.20;;;4.80;89.20;;;;;;5020361;28;20079;-85
2022/01/24 00:43:33;;;;;;;4.25;2.05;;;4.90;89.30;;;;;;5006969;28;20049;-85
2022/01/24 00:46:03;;;;;;;2.17;1.30;;;4.80;89.20;;;;;;5021487;28;20024;-83
2022/01/24 00:56:10;;;;;;;2.60;1.83;;;4.80;89.30;;;;;;5022869;28;20036;-83
2022/01/24 00:58:36;;;;;;;2.83;1.60;;;4.80;89.30;;;;;;5015476;28;20024;-84
2022/01/24 01:01:01;;;;;;;2.17;1.30;;;4.80;89.30;;;;;;5031681;28;20044;-83
2022/01/24 01:03:27;;;;;;;2.47;1.55;;;4.80;89.40;;;;;;5016016;28;20599;-87
2022/01/24 01:06:06;;;;;;;1.52;1.27;;;4.80;89.40;;;;;;5010889;28;20057;-85
2022/01/24 01:19:30;;;;;;;2.05;1.38;;;4.80;89.50;;;;;;5037883;28;20414;-85
2022/01/24 01:21:56;;;;;;;1.58;1.40;;;4.80;89.40;;;;;;5024833;28;20029;-87
2022/01/24 01:24:23;;;;;;;1.20;1.10;;;4.80;89.40;;;;;;5036076;28;20141;-84
2022/01/24 01:27:07;;;;;;;3.67;2.10;;;4.80;89.50;;;;;;5014310;28;20123;-82
2022/01/24 01:29:46;;;;;;;9.68;4.22;;;4.80;89.50;;;;;;5005412;28;20744;-81
2022/01/24 01:32:20;;;;;;;9.77;3.92;;;4.80;89.50;;;;;;5041987;28;20045;-81
2022/01/24 01:35:11;;;;;;;4.43;2.20;;;4.80;89.60;;;;;;4979157;28;20096;-81
2022/01/24 01:54:24;;;;;;;2.00;1.15;;;4.80;89.60;;;;;;5007939;28;20851;-81
2022/01/24 01:56:34;;;;;;;2.47;1.30;;;4.80;89.60;;;;;;5031316;28;20029;-81
2022/01/24 01:59:00;;;;;;;2.03;1.20;;;4.80;89.70;;;;;;5028883;28;20033;-82
2022/01/24 02:01:26;;;;;;;1.63;1.15;;;4.80;89.70;;;;;;5033603;28;20037;-83
2022/01/24 02:03:54;;;;;;;2.08;1.10;;;4.80;89.70;;;;;;5030965;28;20164;-83
2022/01/24 02:06:21;;;;;;;1.48;1.17;;;4.80;89.80;;;;;;5029108;28;20029;-83
2022/01/24 02:08:46;;;;;;;0.88;0.80;;;4.80;89.80;;;;;;5003563;28;20112;-82
2022/01/24 02:11:15;;;;;;;1.95;0.98;;;4.80;89.80;;;;;;5004547;28;20167;-83
2022/01/24 02:13:40;;;;;;;2.03;1.17;;;4.80;89.80;;;;;;4999391;28;20025;-82
2022/01/24 02:16:22;;;;;;;1.55;1.30;;;4.80;89.80;;;;;;5033264;28;20525;-83
2022/01/24 02:19:08;;;;;;;1.92;1.15;;;4.80;89.80;;;;;;5017575;28;20594;-83
2022/01/24 02:21:47;;;;;;;1.95;1.20;;;4.80;89.80;;;;;;5006138;28;20128;-83
2022/01/24 02:24:15;;;;;;;1.95;1.30;;;4.80;89.80;;;;;;5006300;28;20049;-81
2022/01/24 02:26:41;;;;;;;2.70;1.20;;;4.80;89.80;;;;;;5011266;28;20060;-82
2022/01/24 02:29:25;;;;;;;2.13;1.27;;;4.80;89.90;;;;;;5033173;28;20056;-83
2022/01/24 02:31:52;;;;;;;2.00;1.08;;;4.80;89.90;;;;;;5023525;28;22212;-82
2022/01/24 02:34:35;;;;;;;1.30;1.15;;;4.80;89.90;;;;;;5030436;28;20032;-82
2022/01/24 02:37:03;;;;;;;1.55;1.38;;;4.80;89.90;;;;;;5029431;28;20120;-83
2022/01/24 02:50:22;;;;;;;1.70;1.30;;;4.80;89.90;;;;;;5045469;28;20363;-82
2022/01/24 02:52:48;;;;;;;1.33;0.80;;;4.70;89.80;;;;;;5028044;28;20106;-82
2022/01/24 02:55:13;;;;;;;1.40;1.10;;;4.80;89.90;;;;;;5031442;28;20652;-82
2022/01/24 02:57:39;;;;;;;2.20;0.90;;;4.80;89.90;;;;;;5031306;28;20037;-83
2022/01/24 03:00:05;;;;;;;2.45;1.40;;;4.80;90.00;;;;;;5020405;28;20029;-82
2022/01/24 03:02:30;;;;;;;4.60;1.40;;;4.80;90.00;;;;;;5027773;28;20055;-82
2022/01/24 03:04:57;;;;;;;1.20;1.10;;;4.80;90.00;;;;;;5029963;28;20053;-82
2022/01/24 03:07:23;;;;;;;1.40;1.17;;;4.80;90.00;;;;;;5029658;28;20522;-82
2022/01/24 03:09:49;;;;;;;1.67;1.10;;;4.80;90.00;;;;;;5001580;28;20053;-82
2022/01/24 03:12:26;;;;;;;2.40;1.08;;;4.80;90.00;;;;;;5019189;28;20029;-82
2022/01/24 03:14:52;;;;;;;1.23;0.88;;;4.80;90.00;;;;;;5002863;28;20036;-82
2022/01/24 03:17:17;;;;;;;1.00;0.90;;;4.80;90.00;;;;;;4993759;28;20033;-82
2022/01/24 03:19:43;;;;;;;3.35;1.25;;;4.80;90.00;;;;;;5039696;28;20037;-82
2022/01/24 03:22:11;;;;;;;1.98;1.27;;;4.80;90.00;;;;;;4996594;28;20039;-82
2022/01/24 03:24:36;;;;;;;2.10;1.27;;;4.80;89.90;;;;;;5052961;28;20029;-82
2022/01/24 03:27:02;;;;;;;2.03;1.20;;;4.80;89.90;;;;;;4988877;28;20680;-82
2022/01/24 03:29:28;;;;;;;1.13;1.02;;;4.80;89.90;;;;;;5007397;28;20073;-82
2022/01/24 03:31:53;;;;;;;1.13;1.00;;;4.80;89.90;;;;;;5040608;28;20041;-82
2022/01/24 03:34:19;;;;;;;1.40;0.70;;;4.80;89.90;;;;;;5040010;28;20423;-83
2022/01/24 03:36:44;;;;;;;0.77;0.70;;;4.80;89.90;;;;;;5028667;28;20430;-81
2022/01/24 03:39:11;;;;;;;0.77;0.50;;;4.80;89.80;;;;;;5028903;28;20036;-81
2022/01/24 03:41:39;;;;;;;0.52;0.40;;;4.80;89.80;;;;;;5034121;28;20028;-81
2022/01/24 03:44:05;;;;;;;0.77;0.50;;;4.80;89.70;;;;;;5012723;28;20029;-81
2022/01/24 03:46:47;;;;;;;0.50;0.50;;;4.80;89.60;;;;;;5007622;28;20044;-81
2022/01/24 03:49:45;;;;;;;0.80;0.60;;;4.80;89.60;;;;;;5043900;28;20052;-81
2022/01/24 03:51:58;;;;;;;0.77;0.52;;;4.80;89.50;;;;;;5016498;28;20510;-81
2022/01/24 03:54:23;;;;;;;2.33;0.80;;;4.80;89.50;;;;;;5014387;28;20128;-81
2022/01/24 03:56:49;;;;;;;0.85;0.50;;;4.90;89.60;;;;;;5023702;28;20037;-81
2022/01/24 03:59:14;;;;;;;1.50;0.93;;;4.80;89.50;;;;;;5013772;28;21349;-81
2022/01/24 04:01:40;;;;;;;2.63;1.20;;;4.90;89.60;;;;;;5032312;28;20043;-81
2022/01/24 04:04:05;;;;;;;1.63;1.00;;;4.90;89.50;;;;;;5018742;28;20114;-81
2022/01/24 04:06:31;;;;;;;0.60;0.60;;;4.90;89.60;;;;;;5016449;28;20124;-81
2022/01/24 04:08:56;;;;;;;0.50;0.40;;;4.80;89.50;;;;;;5008968;28;20082;-82
2022/01/24 04:11:22;;;;;;;0.70;0.70;;;4.80;89.40;;;;;;5026138;28;20128;-81
2022/01/24 04:13:57;;;;;;;0.50;0.50;;;4.90;89.40;;;;;;4995497;28;20120;-81
2022/01/24 04:16:26;;;;;;;0.68;0.68;;;4.90;89.40;;;;;;5032765;28;20033;-81
2022/01/24 04:21:33;;;;;;;0.60;0.60;;;4.90;89.40;;;;;;5008937;28;20128;-81
2022/01/24 04:24:07;;;;;;;1.17;0.55;;;4.90;89.40;;;;;;5021324;28;20041;-81
2022/01/24 04:26:33;;;;;;;1.85;0.73;;;4.90;89.40;;;;;;5008993;28;20132;-81
2022/01/24 04:28:59;;;;;;;0.70;0.70;;;4.90;89.40;;;;;;5031956;28;20128;-81
2022/01/24 04:31:24;;;;;;;0.63;0.63;;;4.90;89.40;;;;;;5024351;28;20140;-81
2022/01/24 04:33:50;;;;;;;4.93;1.20;;;4.80;89.40;;;;;;5016617;28;20144;-81
2022/01/24 04:36:16;;;;;;;1.23;0.80;;;4.90;89.50;;;;;;5025057;28;20582;-81
2022/01/24 04:38:42;;;;;;;0.68;0.55;;;4.90;89.50;;;;;;5010055;28;20037;-81
2022/01/24 04:41:16;;;;;;;0.60;0.60;;;4.90;89.50;;;;;;5028945;28;20502;-81
2022/01/24 04:44:02;;;;;;;1.67;1.08;;;4.90;89.50;;;;;;5000662;28;20032;-81
2022/01/24 04:54:42;;;;;;;19.30;9.27;;;4.90;89.40;;;;;;5023099;28;20033;-81
2022/01/24 04:57:19;;;;;;;5.38;3.60;;;4.80;89.30;;;;;;5006209;28;20102;-81
2022/01/24 04:59:47;;;;;;;5.43;3.38;;;4.90;89.30;;;;;;5024651;28;20116;-81
2022/01/24 05:02:12;;;;;;;5.60;2.60;;;4.90;89.30;;;;;;5025710;28;20095;-81
2022/01/24 05:04:38;;;;;;;4.10;2.88;;;4.90;89.30;;;;;;5014436;28;20045;-81
2022/01/24 05:07:04;;;;;;;12.52;7.10;;;4.90;89.20;;;;;;5010168;28;20041;-81
2022/01/24 05:09:35;;;;;;;1.40;1.30;;;4.90;89.10;;;;;;4997444;28;20122;-82
2022/01/24 05:12:07;;;;;;;1.98;1.10;;;4.90;89.90;;;;;;5025169;28;20159;-81
2022/01/24 05:25:29;;;;;;;4.30;3.30;;;4.90;88.90;;;;;;5016508;28;20041;-81
2022/01/24 05:27:55;;;;;;;2.53;2.03;;;4.90;89.00;;;;;;5010433;28;20031;-81
2022/01/24 05:30:20;;;;;;;1.15;1.00;;;4.90;89.10;;;;;;5014321;28;20041;-83
2022/01/24 05:32:46;;;;;;;1.77;0.90;;;4.90;89.10;;;;;;5044216;28;20041;-82
2022/01/24 05:35:11;;;;;;;1.48;1.08;;;4.90;88.90;;;;;;5001988;28;20068;-83
2022/01/24 05:37:37;;;;;;;3.22;2.15;;;4.90;89.00;;;;;;4984213;28;20048;-85
2022/01/24 05:40:03;;;;;;;14.82;6.90;;;4.90;89.00;;;;;;5046354;28;20032;-85
2022/01/24 05:42:29;;;;;;;13.95;6.57;;;4.90;89.00;;;;;;4998944;28;20026;-83
2022/01/24 05:44:54;;;;;;;7.22;3.75;;;4.90;89.00;;;;;;5046813;28;20033;-83
2022/01/24 05:47:20;;;;;;;1.33;1.00;;;4.90;89.00;;;;;;5029912;28;20104;-83
2022/01/24 05:49:45;;;;;;;1.80;0.70;;;4.90;89.00;;;;;;5048138;28;20060;-83
2022/01/24 05:52:11;;;;;;;1.30;1.20;;;4.90;88.90;;;;;;5019536;28;20065;-84
2022/01/24 05:54:38;;;;;;;1.38;1.27;;;4.90;88.90;;;;;;5036792;28;20052;-84
2022/01/24 05:57:04;;;;;;;1.65;0.70;;;4.90;88.90;;;;;;5016829;28;20040;-86
2022/01/24 05:59:29;;;;;;;1.88;1.52;;;4.90;88.90;;;;;;5021149;28;20058;-83
2022/01/24 06:01:55;;;;;;;3.90;2.28;;;4.90;88.90;;;;;;5044573;28;20106;-85
2022/01/24 06:04:20;;;;;;;3.25;2.10;;;4.90;88.80;;;;;;5028305;28;20036;-86
2022/01/24 06:06:46;;;;;;;3.17;1.52;;;4.90;88.80;;;;;;5041460;28;20036;-85
2022/01/24 06:09:11;;;;;;;4.05;1.92;;;4.90;88.70;;;;;;5023052;28;20145;-85
2022/01/24 06:11:37;;;;;;;2.20;1.40;;;4.90;88.60;;;;;;5028955;28;20561;-86
2022/01/24 06:14:04;;;;;;;2.65;1.23;;;4.90;88.70;;;;;;5029944;28;20698;-87
2022/01/24 06:16:29;;;;;;;0.75;0.70;;;4.90;88.60;;;;;;5015706;28;20487;-86
2022/01/24 06:18:55;;;;;;;3.00;1.85;;;4.90;88.60;;;;;;5027959;28;20036;-86
2022/01/24 06:21:20;;;;;;;1.08;0.85;;;4.90;88.60;;;;;;5016481;28;20485;-84
2022/01/24 06:23:46;;;;;;;1.52;0.93;;;4.90;88.60;;;;;;5029506;28;20114;-83
2022/01/24 06:26:12;;;;;;;3.00;1.13;;;4.90;88.60;;;;;;5037552;28;20037;-84
2022/01/24 06:28:37;;;;;;;2.67;1.23;;;4.80;88.50;;;;;;5032868;28;20041;-84
2022/01/24 06:31:03;;;;;;;3.38;1.67;;;4.90;88.50;;;;;;5021132;28;20045;-84
2022/01/24 06:33:29;;;;;;;2.47;1.20;;;4.90;88.50;;;;;;5032518;28;20056;-83
2022/01/24 06:35:54;;;;;;;1.50;1.08;;;4.90;88.60;;;;;;5009271;28;20616;-84
2022/01/24 06:38:20;;;;;;;1.40;1.10;;;4.80;88.50;;;;;;5021713;28;20044;-85
2022/01/24 06:40:45;;;;;;;1.27;1.00;;;4.90;88.50;;;;;;5048777;28;20028;-85
2022/01/24 06:43:11;;;;;;;1.35;1.00;;;4.90;88.50;;;;;;5016630;28;20048;-83
2022/01/24 06:45:37;;;;;;;1.20;1.10;;;4.90;88.50;;;;;;5010888;28;20128;-85
2022/01/24 06:48:03;;;;;;;1.65;1.00;;;4.90;88.50;;;;;;5047516;28;20128;-84
2022/01/24 06:50:29;;;;;;;1.02;0.80;;;4.90;88.50;;;;;;5018030;28;20025;-84
2022/01/24 06:52:54;;;;;;;1.65;0.70;;;4.90;88.50;;;;;;5035633;28;20029;-86
2022/01/24 06:55:20;;;;;;;0.80;0.63;;;4.90;88.50;;;;;;5039584;28;20029;-86
2022/01/24 06:57:45;;;;;;;1.33;1.13;;;4.90;88.40;;;;;;5014284;28;20033;-84
2022/01/24 07:00:11;;;;;;;1.27;0.90;;;4.90;88.40;;;;;;5015420;28;20029;-84
2022/01/24 07:02:37;;;;;;;2.05;0.98;;;4.90;88.40;;;;;;5032948;28;20085;-86
2022/01/24 07:05:03;;;;;;;1.27;1.10;;;4.90;88.40;;;;;;4981240;28;20045;-84
2022/01/24 07:07:30;;;;;;;1.15;1.02;;;4.90;88.40;;;;;;4994540;28;20513;-84
2022/01/24 07:09:55;;;;;;;0.77;0.77;;;4.90;88.40;;;;;;5036433;28;20092;-84
2022/01/24 07:12:22;;;;;;;1.75;0.80;;;4.90;88.40;;;;;;5032959;28;20045;-84
2022/01/24 07:14:48;;;;;;;2.05;1.83;;;4.90;88.40;;;;;;5007911;28;20029;-86
2022/01/24 07:19:51;;;;;;;6.78;4.18;;;4.90;88.30;;;;;;5032426;28;20442;-85
2022/01/24 07:22:17;;;;;;;3.72;2.40;;;4.90;88.30;;;;;;5049824;28;20487;-84
2022/01/24 07:24:42;;;;;;;2.30;1.65;;;4.90;88.30;;;;;;5005318;28;20092;-86
2022/01/24 07:27:08;;;;;;;2.08;1.60;;;4.90;88.30;;;;;;5015193;28;20048;-87
2022/01/24 07:29:33;;;;;;;5.68;3.90;;;4.90;88.30;;;;;;5022513;28;20097;-84
2022/01/24 07:31:59;;;;;;;3.78;2.20;;;4.90;88.30;;;;;;4997834;28;20136;-85
2022/01/24 07:34:25;;;;;;;4.32;2.00;;;4.90;88.30;;;;;;5016630;28;20518;-85
2022/01/24 07:36:51;;;;;;;4.93;1.50;;;4.90;88.30;;;;;;4991374;28;20070;-85
2022/01/24 07:39:17;;;;;;;2.88;1.20;;;4.90;88.30;;;;;;5019974;28;20531;-84
2022/01/24 07:41:45;;;;;;;3.45;1.45;;;4.90;88.20;;;;;;5024376;28;20111;-84
2022/01/24 07:44:11;;;;;;;0.80;0.80;;;4.90;88.30;;;;;;5010060;28;20663;-83
2022/01/24 07:46:36;;;;;;;1.30;0.85;;;4.90;88.40;;;;;;5031361;28;20070;-85
2022/01/24 07:49:03;;;;;;;1.20;0.80;;;4.90;88.20;;;;;;5017030;28;20469;-86
2022/01/24 07:51:29;;;;;;;1.60;1.20;;;4.90;89.00;;;;;;5001422;28;20438;-84
2022/01/24 07:53:54;;;;;;;1.60;1.08;;;4.90;88.20;;;;;;5008468;28;20044;-83
2022/01/24 07:56:20;;;;;;;2.00;0.90;;;5.00;88.20;;;;;;5034823;28;20063;-85
2022/01/24 07:58:45;;;;;;;3.10;1.38;;;5.00;88.30;;;;;;5023146;28;20048;-84
2022/01/24 08:01:12;;;;;;;4.22;2.60;;;5.00;88.20;;;;;;4987957;28;20046;-83
2022/01/24 08:03:38;;;;;;;4.65;1.98;;;5.00;88.20;;;;;;5018335;28;20148;-85
2022/01/24 08:06:03;;;;;;;4.97;3.05;;;5.00;88.20;;;;;;5017464;28;20600;-83
2022/01/24 08:08:29;;;;;;;3.90;2.50;;;5.00;88.20;;;;;;4998877;28;20039;-84
2022/01/24 08:10:54;;;;;;;3.95;2.50;;;5.00;88.20;;;;;;5013935;28;20090;-87
2022/01/24 08:13:20;;;;;;;3.90;2.15;;;5.00;88.20;;;;;;5053489;28;20392;-84
2022/01/24 08:15:46;;;;;;;3.75;1.70;;;5.00;88.20;;;;;;5027511;28;20648;-83
2022/01/24 08:18:12;;;;;;;3.72;2.25;;;5.00;88.20;;;;;;5006510;28;20034;-85
2022/01/24 08:20:37;;;;;;;2.42;1.80;;;5.00;88.30;;;;;;4998771;28;20049;-83
2022/01/24 08:23:03;;;;;;;3.13;1.98;;;5.00;88.30;;;;;;5005239;28;20029;-84
2022/01/24 08:25:29;;;;;;;3.95;2.75;;;5.10;88.30;;;;;;5034132;28;20028;-87
2022/01/24 08:27:54;;;;;;;2.95;2.50;;;5.00;88.30;;;;;;5051103;28;20674;-85
2022/01/24 08:30:21;;;;;;;5.55;2.78;;;5.10;88.30;;;;;;5000461;28;20037;-85
2022/01/24 08:32:47;;;;;;;4.38;2.70;;;5.00;88.20;;;;;;5028975;28;20025;-85
2022/01/24 08:35:13;;;;;;;2.22;1.95;;;5.10;88.30;;;;;;5006106;28;20088;-86
2022/01/24 08:37:39;;;;;;;24.13;16.23;;;5.10;88.20;;;;;;4990931;28;20033;-87
2022/01/24 08:40:09;;;;;;;7.63;5.55;;;5.10;88.30;;;;;;5037225;28;20031;-86
2022/01/24 08:47:30;;;;;;;2.03;1.20;;;5.10;88.10;;;;;;5036680;28;20105;-85
2022/01/24 08:49:56;;;;;;;4.32;3.30;;;5.10;88.10;;;;;;5009968;28;20052;-86
2022/01/24 08:52:22;;;;;;;5.32;2.10;;;5.10;88.10;;;;;;5028417;28;20034;-87
2022/01/24 08:54:47;;;;;;;1.60;1.50;;;5.10;88.00;;;;;;5020202;28;20179;-88
2022/01/24 08:57:13;;;;;;;1.50;1.20;;;5.20;88.10;;;;;;5046405;28;20032;-86
2022/01/24 08:59:39;;;;;;;3.58;2.83;;;5.20;88.20;;;;;;5019596;28;20103;-86
2022/01/24 09:02:05;;;;;;;2.70;2.33;;;5.20;88.20;;;;;;5017894;28;20123;-85
2022/01/24 09:04:30;;;;;;;3.40;1.73;;;5.20;88.20;;;;;;5057132;28;20029;-88
2022/01/24 09:06:59;;;;;;;2.35;1.83;;;5.20;88.10;;;;;;5013209;28;20055;-86
2022/01/24 09:09:25;;;;;;;4.18;1.80;;;5.20;88.10;;;;;;5019438;28;20035;-86
2022/01/24 09:11:51;;;;;;;3.17;1.55;;;5.20;88.10;;;;;;5006805;28;20438;-84
2022/01/24 09:14:16;;;;;;;1.83;1.38;;;5.30;88.10;;;;;;5006053;28;20523;-83
2022/01/24 09:16:42;;;;;;;3.03;1.75;;;5.30;88.10;;;;;;5032136;28;20103;-84
2022/01/24 09:19:07;;;;;;;3.20;1.85;;;5.30;88.20;;;;;;5023471;28;20041;-85
2022/01/24 09:21:34;;;;;;;2.63;1.67;;;5.30;88.00;;;;;;5014022;28;20041;-84
2022/01/24 09:24:00;;;;;;;3.38;1.63;;;5.30;88.10;;;;;;5018439;28;20036;-83
2022/01/24 09:26:26;;;;;;;2.53;2.03;;;5.30;88.00;;;;;;5031595;28;20024;-85
2022/01/24 09:28:52;;;;;;;3.53;1.80;;;5.40;88.10;;;;;;5017828;28;20044;-85
2022/01/24 09:31:17;;;;;;;2.55;1.75;;;5.30;88.00;;;;;;5011651;28;20522;-85
2022/01/24 09:33:43;;;;;;;3.30;1.42;;;5.40;88.10;;;;;;5015366;28;20033;-86
2022/01/24 09:36:09;;;;;;;2.50;1.20;;;5.40;88.00;;;;;;5025355;28;20037;-85
2022/01/24 09:38:36;;;;;;;4.22;1.30;;;5.40;88.10;;;;;;5012745;28;20029;-82
2022/01/24 09:41:04;;;;;;;1.58;1.00;;;5.40;88.00;;;;;;5029739;28;20038;-81
2022/01/24 09:43:29;;;;;;;1.88;1.75;;;5.50;88.00;;;;;;5014901;28;20506;-81
2022/01/24 09:45:55;;;;;;;1.25;1.15;;;5.40;87.90;;;;;;5019126;28;20140;-81
2022/01/24 09:48:21;;;;;;;2.90;0.98;;;5.40;87.90;;;;;;5007232;28;20033;-82
2022/01/24 09:50:50;;;;;;;1.73;1.17;;;5.40;88.70;;;;;;5036403;28;20078;-81
2022/01/24 09:53:16;;;;;;;1.42;1.10;;;5.50;87.90;;;;;;5029137;28;20029;-81
2022/01/24 09:55:41;;;;;;;1.25;1.15;;;5.50;87.90;;;;;;5012091;28;20035;-81
2022/01/24 09:58:07;;;;;;;1.70;0.93;;;5.50;87.90;;;;;;5029287;28;20830;-81
2022/01/24 10:00:33;;;;;;;2.17;1.10;;;5.50;87.80;;;;;;4995236;28;20438;-81
2022/01/24 10:02:58;;;;;;;1.40;1.23;;;5.50;87.70;;;;;;5029340;28;20059;-81
2022/01/24 10:05:30;;;;;;;2.78;1.00;;;5.50;87.70;;;;;;4994813;28;20029;-81
2022/01/24 10:07:56;;;;;;;2.00;1.10;;;5.50;87.70;;;;;;5017161;28;20676;-81
2022/01/24 10:10:33;;;;;;;4.35;1.30;;;5.60;87.60;;;;;;5021283;28;20033;-81
2022/01/24 10:19:17;;;;;;;1.42;1.27;;;5.60;87.60;;;;;;5044672;28;20056;-81
2022/01/24 10:21:43;;;;;;;3.75;1.23;;;5.60;87.60;;;;;;4984721;28;20053;-81
2022/01/24 10:24:10;;;;;;;1.10;1.00;;;5.60;87.60;;;;;;5022176;28;20103;-81
2022/01/24 10:26:35;;;;;;;3.28;1.70;;;5.60;87.60;;;;;;5014975;28;20040;-82
2022/01/24 10:29:01;;;;;;;4.45;1.77;;;5.60;87.50;;;;;;4987170;28;20110;-81
2022/01/24 10:31:29;;;;;;;3.97;1.85;;;5.60;87.60;;;;;;5032831;28;20036;-81
2022/01/24 10:34:06;;;;;;;3.45;1.67;;;5.60;87.60;;;;;;5006328;28;20033;-81
2022/01/24 10:36:38;;;;;;;2.75;1.48;;;5.70;87.70;;;;;;5003176;28;20798;-81
2022/01/24 10:39:11;;;;;;;2.30;1.60;;;5.70;87.60;;;;;;5029953;28;20037;-81
2022/01/24 10:44:27;;;;;;;1.33;1.23;;;5.70;87.60;;;;;;5029888;28;20513;-81
2022/01/24 10:46:52;;;;;;;1.48;1.38;;;5.80;87.70;;;;;;5030444;28;20119;-81
2022/01/24 10:49:18;;;;;;;2.65;1.70;;;5.80;87.60;;;;;;5015772;28;20585;-81
2022/01/24 10:51:47;;;;;;;1.77;1.65;;;5.80;87.60;;;;;;4988693;28;20068;-82
2022/01/24 10:54:17;;;;;;;1.90;1.67;;;5.80;88.30;;;;;;5024678;28;20041;-82
2022/01/24 10:56:44;;;;;;;1.98;1.88;;;5.80;87.50;;;;;;5005679;28;20037;-81
2022/01/24 10:59:11;;;;;;;2.70;1.77;;;5.80;87.40;;;;;;5012549;28;20041;-82
2022/01/24 11:01:37;;;;;;;4.75;1.63;;;5.90;87.50;;;;;;5035339;28;20056;-81
2022/01/24 11:04:10;;;;;;;1.90;1.65;;;5.90;87.50;;;;;;5029415;28;20064;-81
2022/01/24 11:06:40;;;;;;;1.90;1.40;;;5.90;87.50;;;;;;5018226;28;20060;-82
2022/01/24 11:09:11;;;;;;;2.05;1.33;;;5.90;87.40;;;;;;4990873;28;20038;-81
2022/01/24 11:11:37;;;;;;;;;;;5.90;87.30;;;;;;5026145;28;20554;-81
2022/01/24 11:14:03;;;;;;;1.45;1.23;;;5.90;87.40;;;;;;5031789;28;19969;-81
2022/01/24 11:16:28;;;;;;;1.98;1.88;;;5.90;87.30;;;;;;5013396;28;20498;-81
2022/01/24 11:18:54;;;;;;;2.00;1.23;;;5.90;87.30;;;;;;5026007;28;20067;-82
2022/01/24 11:21:19;;;;;;;1.50;1.40;;;5.90;87.30;;;;;;4995307;28;20041;-81
2022/01/24 11:23:45;;;;;;;1.48;1.30;;;6.00;87.30;;;;;;5030886;28;20048;-81
2022/01/24 11:26:11;;;;;;;3.33;1.27;;;5.90;87.30;;;;;;5011753;28;20391;-82
2022/01/24 11:28:37;;;;;;;1.88;1.67;;;6.00;87.30;;;;;;5001575;28;20066;-82
2022/01/24 11:31:06;;;;;;;1.50;1.40;;;6.00;87.30;;;;;;5030334;28;20036;-81
2022/01/24 11:33:33;;;;;;;2.42;1.35;;;6.00;87.30;;;;;;4982887;28;20645;-81
2022/01/24 11:36:03;;;;;;;1.70;1.60;;;6.00;87.30;;;;;;5015936;28;20091;-81
2022/01/24 11:38:42;;;;;;;2.83;1.42;;;6.00;87.20;;;;;;5026214;28;20033;-81
2022/01/24 11:41:21;;;;;;;2.22;1.30;;;6.00;87.10;;;;;;5015666;28;20041;-82
2022/01/24 11:43:48;;;;;;;1.35;1.25;;;6.00;87.10;;;;;;5046044;28;20939;-81
2022/01/24 11:46:55;;;;;;;1.40;1.30;;;6.00;87.10;;;;;;5001615;28;20029;-81
2022/01/24 11:49:36;;;;;;;1.92;1.58;;;6.10;87.20;;;;;;5046733;28;20063;-81
2022/01/24 11:52:13;;;;;;;3.45;1.40;;;6.10;87.20;;;;;;5029718;28;20395;-82
2022/01/24 11:54:47;;;;;;;2.67;1.50;;;6.10;87.20;;;;;;5002745;28;20034;-82
2022/01/24 11:57:29;;;;;;;2.60;1.52;;;6.10;87.10;;;;;;5042314;28;20624;-81
2022/01/24 12:00:01;;;;;;;3.10;1.50;;;6.10;87.00;;;;;;5001357;28;20036;-81
2022/01/24 12:02:28;;;;;;;2.55;1.77;;;6.10;87.10;;;;;;5045850;28;20035;-81
2022/01/24 12:04:58;;;;;;;2.33;1.80;;;6.10;87.10;;;;;;5030100;28;20040;-81
2022/01/24 12:07:25;;;;;;;1.75;1.42;;;6.20;87.10;;;;;;5014478;28;20040;-82
2022/01/24 12:09:52;;;;;;;3.90;2.10;;;6.20;87.10;;;;;;5011485;28;20132;-82
2022/01/24 12:12:38;;;;;;;2.50;2.13;;;6.20;87.10;;;;;;5016952;28;20087;-82
2022/01/24 12:15:04;;;;;;;2.47;1.90;;;6.20;87.00;;;;;;5029004;28;20398;-82
2022/01/24 12:17:49;;;;;;;2.80;2.13;;;6.20;87.00;;;;;;5028264;28;20136;-82
2022/01/24 12:20:30;;;;;;;1.88;1.58;;;6.20;86.80;;;;;;5034913;28;20098;-82
2022/01/24 12:22:56;;;;;;;1.83;1.73;;;6.20;86.80;;;;;;5040821;28;20037;-81
2022/01/24 12:25:50;;;;;;;1.58;1.42;;;6.20;86.90;;;;;;5010284;28;20040;-86
2022/01/24 12:28:26;;;;;;;2.55;2.10;;;6.20;86.80;;;;;;5028288;28;20037;-87
2022/01/24 12:31:05;;;;;;;3.03;1.52;;;6.20;86.80;;;;;;5040783;28;20060;-88
2022/01/24 12:33:34;;;;;;;8.05;5.32;;;6.20;86.80;;;;;;5056005;28;20091;-83
2022/01/24 12:36:04;;;;;;;81.50;32.95;;;6.20;86.80;;;;;;5051162;28;20038;-84
2022/01/24 12:38:59;;;;;;;12.95;6.97;;;6.30;86.80;;;;;;5010517;28;20365;-84
2022/01/24 12:41:29;;;;;;;7.93;3.92;;;6.30;86.70;;;;;;5010988;28;21752;-83
2022/01/24 12:46:30;;;;;;;5.35;4.28;;;6.30;86.70;;;;;;5033977;28;20025;-83
2022/01/24 12:49:00;;;;;;;5.10;3.40;;;6.30;86.60;;;;;;5018169;28;20045;-83
2022/01/24 12:51:27;;;;;;;10.20;4.47;;;6.30;86.50;;;;;;5009859;28;20029;-82
2022/01/24 12:53:53;;;;;;;6.05;3.95;;;6.30;86.50;;;;;;5016648;28;20033;-82
2022/01/24 12:56:22;;;;;;;5.38;3.35;;;6.30;86.50;;;;;;5016507;28;20394;-83
2022/01/24 12:58:48;;;;;;;4.00;2.70;;;6.30;86.50;;;;;;5016563;28;20040;-82
2022/01/24 13:01:21;;;;;;;3.05;1.73;;;6.30;86.50;;;;;;5027362;28;20029;-83
2022/01/24 13:03:59;;;;;;;6.13;3.15;;;6.30;86.50;;;;;;5040903;28;20029;-82
2022/01/24 13:06:30;;;;;;;2.70;2.00;;;6.30;86.50;;;;;;5020129;28;20064;-83
2022/01/24 13:09:04;;;;;;;3.22;2.00;;;6.40;86.60;;;;;;5005177;28;20040;-83
2022/01/24 13:11:30;;;;;;;2.97;1.85;;;6.40;86.50;;;;;;5029573;28;20055;-82
2022/01/24 13:14:13;;;;;;;2.50;1.60;;;6.40;86.50;;;;;;4999086;28;20575;-82
2022/01/24 13:22:16;;;;;;;2.00;1.73;;;6.30;86.30;;;;;;5012997;28;20035;-82
2022/01/24 13:25:01;;;;;;;2.83;1.80;;;6.40;86.40;;;;;;5025760;28;20025;-83
2022/01/24 13:27:40;;;;;;;4.53;1.67;;;6.40;86.00;;;;;;5013782;28;20028;-83
2022/01/24 13:30:07;;;;;;;2.38;2.05;;;6.30;86.00;;;;;;5032777;28;20041;-83
2022/01/24 13:32:48;;;;;;;4.32;2.10;;;6.30;86.20;;;;;;5013612;28;20045;-82
2022/01/24 13:35:16;;;;;;;2.83;2.53;;;6.30;86.10;;;;;;5019986;28;20445;-82
2022/01/24 13:37:41;;;;;;;2.15;1.42;;;6.30;86.20;;;;;;4992071;28;20044;-82
2022/01/24 13:40:08;;;;;;;2.28;1.83;;;6.30;86.20;;;;;;5017205;28;20616;-82
2022/01/24 13:42:34;;;;;;;3.08;1.70;;;6.30;86.20;;;;;;5004014;28;20124;-82
2022/01/24 13:45:00;;;;;;;5.05;1.70;;;6.30;86.20;;;;;;5030159;28;20033;-82
2022/01/24 13:47:25;;;;;;;3.65;1.92;;;6.30;86.10;;;;;;5054086;28;20037;-83
2022/01/24 13:49:51;;;;;;;2.78;2.05;;;6.30;86.20;;;;;;5011350;28;20040;-83
2022/01/24 13:52:18;;;;;;;1.95;1.85;;;6.30;86.20;;;;;;4994709;28;20044;-83
2022/01/24 13:54:44;;;;;;;2.28;1.63;;;6.30;86.10;;;;;;5015942;28;20029;-82
2022/01/24 13:57:11;;;;;;;3.25;2.35;;;6.40;86.10;;;;;;5015180;28;20494;-82
2022/01/24 13:59:36;;;;;;;2.08;1.77;;;6.40;86.20;;;;;;5018050;28;20033;-83
2022/01/24 14:02:32;;;;;;;1.80;1.70;;;6.40;86.10;;;;;;5028261;28;20107;-82
2022/01/24 14:05:02;;;;;;;3.45;2.50;;;6.40;86.00;;;;;;5005926;28;20037;-83
2022/01/24 14:07:31;;;;;;;2.72;2.10;;;6.40;86.10;;;;;;4982529;28;20035;-82
2022/01/24 14:09:57;;;;;;;2.92;2.40;;;6.40;86.20;;;;;;4988045;28;20046;-82
2022/01/24 14:12:40;;;;;;;2.60;2.30;;;6.30;86.10;;;;;;5048008;28;20124;-83
2022/01/24 14:15:16;;;;;;;5.18;2.78;;;6.40;86.20;;;;;;5016416;28;20029;-82
2022/01/24 14:17:54;;;;;;;3.17;2.45;;;6.40;86.10;;;;;;5035322;28;20039;-82
2022/01/24 14:20:20;;;;;;;2.72;2.28;;;6.40;86.00;;;;;;5005841;28;20417;-83
2022/01/24 14:22:51;;;;;;;2.70;2.50;;;6.40;86.10;;;;;;5031185;28;20037;-82
2022/01/24 14:25:22;;;;;;;7.72;2.90;;;6.40;86.10;;;;;;4994789;28;20037;-83
2022/01/24 14:27:48;;;;;;;;;;;6.40;86.00;;;;;;4994582;28;20136;-83
2022/01/24 14:30:25;;;;;;;4.40;3.00;;;6.40;86.10;;;;;;5048123;28;19916;-82
2022/01/24 14:33:11;;;;;;;4.53;2.83;;;6.30;85.80;;;;;;5000130;28;20048;-83
2022/01/24 14:35:43;;;;;;;12.35;6.80;;;6.30;85.80;;;;;;5052718;28;20032;-82
2022/01/24 14:38:09;;;;;;;8.13;5.47;;;6.30;85.90;;;;;;4983784;28;20167;-83
2022/01/24 14:40:45;;;;;;;9.60;6.30;;;6.20;85.80;;;;;;5034626;28;20033;-82
2022/01/24 14:45:55;;;;;;;9.20;5.18;;;6.30;85.90;;;;;;5018699;28;20423;-82
2022/01/24 14:48:21;;;;;;;3.88;2.75;;;6.20;85.80;;;;;;5019200;28;20029;-83
2022/01/24 14:50:46;;;;;;;4.45;3.28;;;6.20;85.70;;;;;;5005434;28;20030;-82
2022/01/24 14:53:15;;;;;;;4.65;3.53;;;6.20;85.80;;;;;;5027464;28;20540;-82